CYNL

METAR CYNL 241600Z AUTO 32006KT 9SM OVC007 02/01 A2959 RMK AO1 SLP038
METAR
LOCATION
CYNL
DATE - TIME
241600Z
WIND
320 TRUE @ 6 KNOTS
VISIBILITY
9SM
RUNWAY VISUAL RANGE
NOT REPORTED
WEATHER
CLOUDINESS
OVC007
TEMP / DEWPOINT
2 ºC / 1 ºC
ALTIMETER
29.59 in. Hg
RECENT WEATHER
NOT REPORTED
WIND SHEAR
NOT REPORTED
REMARKS
RMK AO1 SLP038
SEA LEVEL PRESSURE: hPa

CYNL

SPECI CYNL 241535Z AUTO 31007KT 8SM BKN008 BKN013 OVC016 02/00 A2958 RMK AO1 PRESRR SLP036
SPECI
LOCATION
CYNL
DATE - TIME
241535Z
WIND
310 TRUE @ 7 KNOTS
VISIBILITY
8SM
RUNWAY VISUAL RANGE
NOT REPORTED
WEATHER
CLOUDINESS
BKN008 BKN013 OVC016
TEMP / DEWPOINT
2 ºC / 0 ºC
ALTIMETER
29.58 in. Hg
RECENT WEATHER
NOT REPORTED
WIND SHEAR
NOT REPORTED
REMARKS
RMK AO1 PRESRR SLP036
SEA LEVEL PRESSURE: hPa

CYNL

SPECI CYNL 241524Z AUTO 31007KT 8SM SCT007 BKN010 BKN013 02/01 A2958 RMK AO1 PRESRR SLP036
SPECI
LOCATION
CYNL
DATE - TIME
241524Z
WIND
310 TRUE @ 7 KNOTS
VISIBILITY
8SM
RUNWAY VISUAL RANGE
NOT REPORTED
WEATHER
CLOUDINESS
SCT007 BKN010 BKN013
TEMP / DEWPOINT
2 ºC / 1 ºC
ALTIMETER
29.58 in. Hg
RECENT WEATHER
NOT REPORTED
WIND SHEAR
NOT REPORTED
REMARKS
RMK AO1 PRESRR SLP036
SEA LEVEL PRESSURE: hPa

Your time UTC time
 
 
Weather data provided by AXYS Technologies Inc., www.axystechnologies.com
 
Station History